createdAt,value
2018-11-29T00:02:25.800Z,83.79
2018-11-29T00:04:53.935Z,84.50
2018-11-29T00:07:22.119Z,83.94
2018-11-29T00:09:50.282Z,83.90
2018-11-29T00:12:18.427Z,83.90
2018-11-29T00:14:46.589Z,84.18
2018-11-29T00:17:14.711Z,83.63
2018-11-29T00:19:42.901Z,83.83
2018-11-29T00:22:11.051Z,84.41
2018-11-29T00:24:39.194Z,84.14
2018-11-29T00:27:07.329Z,83.41
2018-11-29T00:29:35.471Z,83.92
2018-11-29T00:32:03.627Z,83.62
2018-11-29T00:34:31.775Z,84.06
2018-11-29T00:36:59.937Z,83.83
2018-11-29T00:39:28.149Z,83.94
2018-11-29T00:41:56.330Z,84.12
2018-11-29T00:44:24.471Z,84.14
2018-11-29T00:46:52.763Z,83.94
2018-11-29T00:49:20.925Z,84.03
2018-11-29T00:51:49.063Z,83.68
2018-11-29T00:54:17.187Z,84.11
2018-11-29T00:56:45.346Z,84.52
2018-11-29T00:59:13.452Z,84.54
2018-11-29T01:02:13.375Z,84.45
2018-11-29T01:04:41.488Z,84.14
2018-11-29T01:07:09.590Z,84.27
2018-11-29T01:09:37.826Z,84.30
2018-11-29T01:12:06.406Z,84.47
2018-11-29T01:14:34.561Z,83.97
2018-11-29T01:17:02.749Z,84.23
2018-11-29T01:19:30.868Z,84.46
2018-11-29T01:21:58.997Z,84.70
2018-11-29T01:24:27.241Z,83.95
2018-11-29T01:26:55.423Z,83.52
2018-11-29T01:29:23.741Z,83.73
2018-11-29T01:31:51.865Z,83.82
2018-11-29T01:34:20.075Z,83.73
2018-11-29T01:36:48.236Z,84.02
2018-11-29T01:39:16.405Z,83.92
2018-11-29T01:41:44.507Z,83.97
2018-11-29T01:44:12.623Z,83.68
2018-11-29T01:46:40.829Z,83.63
2018-11-29T01:49:09.007Z,83.42
2018-11-29T01:51:37.303Z,83.22
2018-11-29T01:54:05.479Z,83.13
2018-11-29T01:56:33.653Z,83.80
2018-11-29T01:59:01.831Z,83.65
2018-11-29T02:01:29.971Z,83.25
2018-11-29T02:03:58.155Z,83.19
2018-11-29T02:06:26.312Z,82.57
2018-11-29T02:08:54.517Z,82.47
2018-11-29T02:11:22.653Z,82.89
2018-11-29T02:13:50.939Z,82.42
2018-11-29T02:16:19.143Z,82.64
2018-11-29T02:18:47.251Z,82.26
2018-11-29T02:21:15.436Z,81.81
2018-11-29T02:23:43.588Z,82.41
2018-11-29T02:26:11.697Z,82.21
2018-11-29T02:28:43.216Z,81.75
2018-11-29T02:31:11.391Z,82.10
2018-11-29T02:33:39.530Z,82.24
2018-11-29T02:36:07.624Z,82.49
2018-11-29T02:38:36.109Z,81.78
2018-11-29T02:41:04.541Z,81.54
2018-11-29T02:43:32.654Z,80.89
2018-11-29T02:46:00.831Z,81.00
2018-11-29T02:48:29.029Z,81.17
2018-11-29T02:50:57.346Z,80.72
2018-11-29T02:53:25.457Z,80.28
2018-11-29T02:55:53.872Z,80.08
2018-11-29T02:58:22.088Z,80.28
2018-11-29T03:00:50.275Z,80.11
2018-11-29T03:03:18.419Z,80.13
2018-11-29T03:05:46.543Z,79.48
2018-11-29T03:08:14.759Z,79.73
2018-11-29T03:10:42.968Z,79.49
2018-11-29T03:13:11.061Z,79.44
2018-11-29T03:15:39.151Z,79.71
2018-11-29T03:18:07.334Z,78.84
2018-11-29T03:20:35.543Z,79.13
2018-11-29T03:23:03.731Z,78.82
2018-11-29T03:25:31.847Z,78.79
2018-11-29T03:27:59.984Z,78.61
2018-11-29T03:30:28.156Z,78.57
2018-11-29T03:32:56.262Z,79.08
2018-11-29T03:35:24.447Z,79.11
2018-11-29T03:37:52.536Z,78.62
2018-11-29T03:40:20.699Z,78.71
2018-11-29T03:42:48.886Z,78.75
2018-11-29T03:45:17.281Z,78.89
2018-11-29T03:47:45.775Z,78.91
2018-11-29T03:50:14.950Z,79.14
2018-11-29T03:52:43.047Z,78.59
2018-11-29T03:55:11.504Z,78.25
2018-11-29T03:57:39.971Z,78.35
2018-11-29T04:00:10.497Z,78.19
2018-11-29T04:02:38.782Z,77.92
2018-11-29T04:05:07.009Z,78.08
2018-11-29T04:07:35.098Z,77.56
2018-11-29T04:10:03.305Z,77.65
2018-11-29T04:12:31.510Z,77.39
2018-11-29T04:14:59.849Z,77.28
2018-11-29T04:17:28.117Z,77.28
2018-11-29T04:19:56.381Z,76.97
2018-11-29T04:22:24.559Z,76.67
2018-11-29T04:24:52.705Z,76.61
2018-11-29T04:27:20.978Z,76.62
2018-11-29T04:29:49.184Z,76.21
2018-11-29T04:32:17.525Z,76.25
2018-11-29T04:34:45.623Z,76.62
2018-11-29T04:37:13.753Z,75.94
2018-11-29T04:39:43.516Z,76.16
2018-11-29T04:42:11.763Z,76.30
2018-11-29T04:44:39.906Z,76.18
2018-11-29T04:47:08.064Z,75.60
2018-11-29T04:49:36.187Z,75.68
2018-11-29T04:52:04.642Z,75.72
2018-11-29T04:54:32.761Z,75.48
2018-11-29T04:57:01.018Z,75.24
2018-11-29T04:59:29.176Z,75.15
2018-11-29T05:01:57.302Z,75.39
2018-11-29T05:04:25.417Z,75.03
2018-11-29T05:06:53.727Z,74.99
2018-11-29T05:09:21.865Z,74.71
2018-11-29T05:11:50.186Z,74.79
2018-11-29T05:14:18.400Z,73.85
2018-11-29T05:16:46.541Z,73.84
2018-11-29T05:19:14.926Z,74.12
2018-11-29T05:21:43.067Z,73.72
2018-11-29T05:24:11.232Z,73.68
2018-11-29T05:26:39.453Z,73.48
2018-11-29T05:29:07.579Z,73.28
2018-11-29T05:31:35.724Z,73.15
2018-11-29T05:34:03.883Z,73.17
2018-11-29T05:36:32.031Z,72.99
2018-11-29T05:39:00.192Z,72.50
2018-11-29T05:41:28.434Z,72.72
2018-11-29T05:43:56.584Z,71.63
2018-11-29T05:46:24.727Z,72.08
2018-11-29T05:48:52.834Z,71.87
2018-11-29T05:51:20.954Z,71.68
2018-11-29T05:53:49.090Z,71.38
2018-11-29T05:56:17.272Z,71.42
2018-11-29T05:58:45.395Z,70.89
2018-11-29T06:01:45.020Z,71.10
2018-11-29T06:04:13.326Z,71.51
2018-11-29T06:06:41.455Z,71.04
2018-11-29T06:09:10.480Z,70.30
2018-11-29T06:11:39.660Z,70.25
2018-11-29T06:14:08.354Z,69.81
2018-11-29T06:16:37.417Z,69.89
2018-11-29T06:19:06.908Z,69.57
2018-11-29T06:21:35.044Z,69.69
2018-11-29T06:24:03.392Z,69.56
2018-11-29T06:26:31.576Z,69.45
2018-11-29T06:28:59.738Z,70.06
2018-11-29T06:31:27.978Z,70.08
2018-11-29T06:33:56.177Z,70.48
2018-11-29T06:36:24.310Z,69.15
2018-11-29T06:38:52.488Z,69.21
2018-11-29T06:41:20.674Z,68.83
2018-11-29T06:43:48.854Z,69.06
2018-11-29T06:46:17.076Z,68.80
2018-11-29T06:48:45.296Z,68.13
2018-11-29T06:51:13.460Z,68.22
2018-11-29T06:53:47.109Z,68.29
2018-11-29T06:56:15.244Z,67.74
2018-11-29T06:58:43.436Z,67.91
2018-11-29T07:01:11.596Z,67.67
2018-11-29T07:03:39.725Z,67.79
2018-11-29T07:06:07.965Z,67.75
2018-11-29T07:08:36.143Z,67.90
2018-11-29T07:11:04.437Z,67.34
2018-11-29T07:13:32.628Z,67.92
2018-11-29T07:16:00.884Z,67.72
2018-11-29T07:18:29.164Z,67.17
2018-11-29T07:21:08.606Z,66.65
2018-11-29T07:23:36.737Z,66.93
2018-11-29T07:26:05.100Z,66.74
2018-11-29T07:28:33.342Z,66.61
2018-11-29T07:31:01.490Z,65.97
2018-11-29T07:33:29.649Z,66.27
2018-11-29T07:35:57.796Z,66.12
2018-11-29T07:38:25.914Z,65.88
2018-11-29T07:40:54.448Z,65.67
2018-11-29T07:43:22.701Z,66.01
2018-11-29T07:45:50.875Z,65.39
2018-11-29T07:48:19.054Z,64.80
2018-11-29T07:50:47.243Z,65.32
2018-11-29T07:53:16.307Z,65.26
2018-11-29T07:55:43.720Z,65.46
2018-11-29T07:58:11.911Z,65.22
2018-11-29T08:00:40.095Z,64.85
2018-11-29T08:03:08.302Z,65.09
2018-11-29T08:05:36.502Z,63.76
2018-11-29T08:08:04.970Z,65.63
2018-11-29T08:10:33.205Z,64.06
2018-11-29T08:13:01.345Z,64.29
2018-11-29T08:15:29.685Z,63.96
2018-11-29T08:17:57.854Z,63.77
2018-11-29T08:20:26.040Z,63.51
2018-11-29T08:22:54.189Z,63.45
2018-11-29T08:25:22.337Z,63.83
2018-11-29T08:27:50.507Z,63.11
2018-11-29T08:30:18.659Z,62.61
2018-11-29T08:32:46.827Z,62.45
2018-11-29T08:35:15.809Z,62.51
2018-11-29T08:37:45.844Z,61.22
2018-11-29T08:40:21.355Z,61.96
2018-11-29T08:42:49.530Z,61.65
2018-11-29T08:45:17.803Z,61.90
2018-11-29T08:47:46.439Z,60.72
2018-11-29T08:50:15.387Z,60.06
2018-11-29T08:52:44.479Z,59.44
2018-11-29T08:55:13.848Z,58.91
2018-11-29T08:57:42.044Z,58.38
2018-11-29T09:00:13.612Z,57.91
2018-11-29T09:02:41.792Z,58.34
2018-11-29T09:05:10.894Z,57.71
2018-11-29T09:07:39.110Z,58.41
2018-11-29T09:10:12.182Z,58.20
2018-11-29T09:12:40.332Z,57.47
2018-11-29T09:15:11.690Z,57.47
2018-11-29T09:17:40.096Z,57.79
2018-11-29T09:20:12.623Z,58.00
2018-11-29T09:22:40.854Z,57.96
2018-11-29T09:25:13.171Z,56.92
2018-11-29T09:27:41.359Z,56.78
2018-11-29T09:30:15.850Z,56.72
2018-11-29T09:32:44.530Z,56.44
2018-11-29T09:35:12.813Z,56.96
2018-11-29T09:37:41.136Z,56.97
2018-11-29T09:40:12.268Z,56.40
2018-11-29T09:42:40.577Z,56.45
2018-11-29T09:45:11.333Z,56.54
2018-11-29T09:47:39.558Z,55.88
2018-11-29T09:50:10.226Z,56.14
2018-11-29T09:52:38.940Z,55.72
2018-11-29T09:55:07.852Z,56.68
2018-11-29T09:57:36.080Z,56.72
2018-11-29T10:00:06.340Z,56.39
2018-11-29T10:02:34.539Z,56.85
2018-11-29T10:05:02.765Z,56.58
2018-11-29T10:07:30.970Z,56.13
2018-11-29T10:09:59.202Z,56.39
2018-11-29T10:12:27.455Z,56.63
2018-11-29T10:14:55.568Z,56.25
2018-11-29T10:17:23.777Z,56.58
2018-11-29T10:19:51.914Z,56.89
2018-11-29T10:22:20.318Z,56.75
2018-11-29T10:24:48.581Z,56.35
2018-11-29T10:27:16.813Z,56.30
2018-11-29T10:29:44.977Z,56.50
2018-11-29T10:32:13.130Z,55.86
2018-11-29T10:34:41.326Z,56.10
2018-11-29T10:37:09.611Z,55.97
2018-11-29T10:39:38.063Z,55.60
2018-11-29T10:42:06.288Z,55.16
2018-11-29T10:44:34.398Z,55.44
2018-11-29T10:47:02.801Z,54.42
2018-11-29T10:49:31.138Z,54.09
2018-11-29T10:51:59.344Z,54.84
2018-11-29T10:54:27.514Z,54.61
2018-11-29T10:56:55.733Z,54.16
2018-11-29T10:59:23.871Z,54.29
2018-11-29T11:01:57.818Z,54.61
2018-11-29T11:04:26.033Z,54.76
2018-11-29T11:06:54.195Z,54.29
2018-11-29T11:09:22.326Z,54.67
2018-11-29T11:11:50.682Z,55.06
2018-11-29T11:14:18.793Z,54.54
2018-11-29T11:16:47.864Z,54.34
2018-11-29T11:19:16.071Z,54.58
2018-11-29T11:21:44.202Z,53.98
2018-11-29T11:24:12.363Z,54.64
2018-11-29T11:26:40.516Z,53.85
2018-11-29T11:29:08.675Z,53.96
2018-11-29T11:31:36.830Z,53.79
2018-11-29T11:34:05.228Z,53.72
2018-11-29T11:36:33.420Z,53.15
2018-11-29T11:39:01.582Z,53.28
2018-11-29T11:41:29.809Z,53.96
2018-11-29T11:43:58.146Z,53.21
2018-11-29T11:46:26.344Z,52.45
2018-11-29T11:48:54.590Z,52.27
2018-11-29T11:51:22.790Z,52.79
2018-11-29T11:53:50.974Z,52.71
2018-11-29T11:56:19.344Z,52.34
2018-11-29T11:58:47.593Z,52.74
2018-11-29T12:01:15.787Z,52.51
2018-11-29T12:03:43.967Z,53.01
2018-11-29T12:06:12.283Z,52.56
2018-11-29T12:08:40.528Z,52.31
2018-11-29T12:11:08.816Z,51.98
2018-11-29T12:13:37.055Z,51.84
2018-11-29T12:16:05.454Z,51.40
2018-11-29T12:18:33.728Z,52.09
2018-11-29T12:21:02.095Z,51.69
2018-11-29T12:23:30.352Z,51.09
2018-11-29T12:25:58.526Z,50.57
2018-11-29T12:28:26.652Z,51.04
2018-11-29T12:30:54.777Z,51.83
2018-11-29T12:33:23.514Z,51.24
2018-11-29T12:35:51.716Z,50.96
2018-11-29T12:38:19.997Z,50.12
2018-11-29T12:40:48.282Z,50.59
2018-11-29T12:43:16.645Z,50.55
2018-11-29T12:45:44.908Z,50.06
2018-11-29T12:48:13.114Z,50.34
2018-11-29T12:50:41.598Z,49.80
2018-11-29T12:53:09.736Z,50.33
2018-11-29T12:55:41.575Z,50.04
2018-11-29T12:58:09.778Z,49.75
2018-11-29T13:00:38.080Z,49.39
2018-11-29T13:05:38.161Z,50.08
2018-11-29T13:08:07.252Z,49.13
2018-11-29T13:10:35.412Z,49.42
2018-11-29T13:13:03.705Z,49.52
2018-11-29T13:15:33.353Z,49.44
2018-11-29T13:18:03.265Z,49.29
2018-11-29T13:20:32.576Z,48.59
2018-11-29T13:22:59.744Z,49.30
2018-11-29T13:25:28.459Z,48.72
2018-11-29T13:27:56.752Z,50.16
2018-11-29T13:30:25.007Z,49.64
2018-11-29T13:32:56.584Z,49.78
2018-11-29T13:35:27.198Z,49.80
2018-11-29T13:37:58.345Z,48.89
2018-11-29T13:40:26.910Z,49.13
2018-11-29T13:42:55.118Z,49.68
2018-11-29T13:45:23.369Z,49.57
2018-11-29T13:47:51.487Z,49.67
2018-11-29T13:50:19.637Z,49.72
2018-11-29T13:52:47.959Z,50.40
2018-11-29T13:55:16.904Z,50.46
2018-11-29T13:57:46.170Z,50.75
2018-11-29T14:00:20.289Z,50.45
2018-11-29T14:02:54.549Z,49.91
2018-11-29T14:05:22.700Z,49.88
2018-11-29T14:07:50.885Z,50.74
2018-11-29T14:10:20.329Z,49.72
2018-11-29T14:12:49.576Z,49.96
2018-11-29T14:15:18.962Z,50.03
2018-11-29T14:17:47.130Z,50.37
2018-11-29T14:20:15.518Z,49.81
2018-11-29T14:22:43.683Z,50.08
2018-11-29T14:25:13.641Z,50.35
2018-11-29T14:27:42.962Z,50.46
2018-11-29T14:30:27.856Z,50.51
2018-11-29T14:32:59.220Z,50.52
2018-11-29T14:35:27.441Z,50.93
2018-11-29T14:37:55.634Z,50.95
2018-11-29T14:40:25.306Z,50.24
2018-11-29T14:42:53.854Z,51.19
2018-11-29T14:45:24.671Z,50.41
2018-11-29T14:47:52.872Z,52.01
2018-11-29T14:50:24.487Z,51.44
2018-11-29T14:52:52.883Z,50.24
2018-11-29T14:55:22.602Z,51.22
2018-11-29T14:57:50.760Z,51.68
2018-11-29T15:00:18.902Z,51.29
2018-11-29T15:02:47.097Z,50.94
2018-11-29T15:05:16.837Z,51.13
2018-11-29T15:07:45.039Z,51.77
2018-11-29T15:10:13.219Z,51.41
2018-11-29T15:12:43.223Z,52.53
2018-11-29T15:15:12.309Z,52.53
2018-11-29T15:17:41.432Z,52.52
2018-11-29T15:20:21.108Z,52.17
2018-11-29T15:22:50.350Z,52.57
2018-11-29T15:25:18.454Z,52.25
2018-11-29T15:27:46.625Z,52.32
2018-11-29T15:30:16.391Z,51.82
2018-11-29T15:32:44.585Z,52.75
2018-11-29T15:35:13.555Z,52.58
2018-11-29T15:37:42.372Z,52.88
2018-11-29T15:40:14.510Z,52.40
2018-11-29T15:42:43.259Z,52.97
2018-11-29T15:45:14.364Z,52.09
2018-11-29T15:47:43.128Z,53.40
2018-11-29T15:50:15.091Z,52.87
2018-11-29T15:52:43.452Z,53.23
2018-11-29T15:55:14.564Z,53.05
2018-11-29T15:57:42.761Z,53.09
2018-11-29T16:00:14.391Z,53.40
2018-11-29T16:02:42.921Z,53.73
2018-11-29T16:05:11.115Z,53.81
2018-11-29T16:07:39.469Z,53.54
2018-11-29T16:10:09.500Z,54.00
2018-11-29T16:12:38.009Z,53.93
2018-11-29T16:15:08.430Z,53.24
2018-11-29T16:17:36.626Z,53.77
2018-11-29T16:20:10.207Z,54.49
2018-11-29T16:22:38.387Z,54.41
2018-11-29T16:25:09.286Z,54.33
2018-11-29T16:27:37.509Z,53.95
2018-11-29T16:30:13.735Z,53.83
2018-11-29T16:32:42.446Z,54.32
2018-11-29T16:35:10.627Z,55.03
2018-11-29T16:37:38.860Z,54.42
2018-11-29T16:40:08.652Z,54.46
2018-11-29T16:42:36.943Z,54.86
2018-11-29T16:45:09.013Z,55.10
2018-11-29T16:47:37.313Z,55.23
2018-11-29T16:50:07.091Z,54.94
2018-11-29T16:52:35.377Z,54.59
2018-11-29T16:55:03.599Z,54.75
2018-11-29T16:57:31.899Z,54.91
2018-11-29T17:00:00.086Z,54.27
2018-11-29T17:02:28.224Z,54.08
2018-11-29T17:04:56.451Z,54.10
2018-11-29T17:07:24.615Z,53.88
2018-11-29T17:09:52.874Z,54.12
2018-11-29T17:12:22.236Z,53.92
2018-11-29T17:14:51.634Z,53.80
2018-11-29T17:17:19.892Z,53.41
2018-11-29T17:19:48.076Z,53.34
2018-11-29T17:22:16.379Z,53.70
2018-11-29T17:24:44.577Z,53.64
2018-11-29T17:27:12.811Z,53.63
2018-11-29T17:29:41.050Z,53.56
2018-11-29T17:32:09.192Z,53.58
2018-11-29T17:34:37.307Z,53.50
2018-11-29T17:37:05.598Z,53.19
2018-11-29T17:39:33.848Z,53.10
2018-11-29T17:42:02.035Z,52.84
2018-11-29T17:44:30.224Z,52.75
2018-11-29T17:46:58.404Z,51.92
2018-11-29T17:49:27.471Z,53.02
2018-11-29T17:51:55.736Z,52.20
2018-11-29T17:54:23.880Z,52.09
2018-11-29T17:56:52.187Z,52.55
2018-11-29T17:59:20.394Z,51.91
2018-11-29T18:01:48.584Z,52.05
2018-11-29T18:04:17.033Z,52.19
2018-11-29T18:06:45.237Z,52.39
2018-11-29T18:09:13.594Z,51.66
2018-11-29T18:11:41.744Z,51.43
2018-11-29T18:14:09.966Z,51.51
2018-11-29T18:16:38.621Z,51.76
2018-11-29T18:19:06.832Z,51.78
2018-11-29T18:21:34.981Z,51.72
2018-11-29T18:24:03.120Z,51.14
2018-11-29T18:26:31.814Z,51.58
2018-11-29T18:28:59.545Z,51.45
2018-11-29T18:31:27.784Z,51.76
2018-11-29T18:33:56.041Z,51.38
2018-11-29T18:36:24.197Z,51.23
2018-11-29T18:38:52.427Z,50.71
2018-11-29T18:41:20.664Z,51.24
2018-11-29T18:43:48.980Z,51.19
2018-11-29T18:46:17.338Z,51.00
2018-11-29T18:48:45.592Z,51.00
2018-11-29T18:51:13.776Z,50.89
2018-11-29T18:53:41.971Z,50.67
2018-11-29T18:56:10.223Z,51.63
2018-11-29T18:58:38.378Z,50.99
2018-11-29T19:01:06.999Z,50.82
2018-11-29T19:03:35.294Z,50.88
2018-11-29T19:06:03.506Z,50.56
2018-11-29T19:08:31.669Z,50.55
2018-11-29T19:10:59.884Z,50.59
2018-11-29T19:13:28.106Z,50.73
2018-11-29T19:15:56.357Z,51.24
2018-11-29T19:18:24.659Z,50.95
2018-11-29T19:20:52.884Z,50.97
2018-11-29T19:23:21.819Z,50.55
2018-11-29T19:25:50.155Z,50.94
2018-11-29T19:28:18.421Z,51.00
2018-11-29T19:30:46.719Z,51.10
2018-11-29T19:33:18.127Z,51.37
2018-11-29T19:35:47.750Z,50.89
2018-11-29T19:38:15.943Z,51.48
2018-11-29T19:40:44.546Z,51.46
2018-11-29T19:43:12.850Z,50.58
2018-11-29T19:45:41.095Z,50.66
2018-11-29T19:48:09.862Z,50.15
2018-11-29T19:50:38.217Z,50.53
2018-11-29T19:53:09.291Z,50.63
2018-11-29T19:55:37.560Z,50.83
2018-11-29T19:58:06.820Z,50.89
2018-11-29T20:00:35.511Z,51.17
2018-11-29T20:03:03.768Z,50.49
2018-11-29T20:05:32.107Z,50.76
2018-11-29T20:08:00.376Z,50.40
2018-11-29T20:10:28.592Z,50.13
2018-11-29T20:13:02.106Z,50.26
2018-11-29T20:15:30.380Z,50.83
2018-11-29T20:17:58.955Z,50.71
2018-11-29T20:20:27.250Z,50.75
2018-11-29T20:22:56.561Z,50.38
2018-11-29T20:25:25.989Z,51.26
2018-11-29T20:27:54.293Z,50.74
2018-11-29T20:30:23.981Z,51.45
2018-11-29T20:32:54.270Z,50.78
2018-11-29T20:35:23.474Z,51.33
2018-11-29T20:37:52.877Z,51.93
2018-11-29T20:40:24.306Z,51.57
2018-11-29T20:42:53.822Z,51.60
2018-11-29T20:45:26.509Z,51.38
2018-11-29T20:47:54.733Z,51.97
2018-11-29T20:50:24.506Z,51.33
2018-11-29T20:52:54.857Z,52.00
2018-11-29T20:55:26.475Z,52.07
2018-11-29T20:57:55.189Z,51.78
2018-11-29T21:00:23.704Z,51.83
2018-11-29T21:02:52.051Z,51.82
2018-11-29T21:05:21.499Z,52.37
2018-11-29T21:07:51.913Z,51.85
2018-11-29T21:10:22.985Z,52.44
2018-11-29T21:12:51.210Z,52.41
2018-11-29T21:15:19.745Z,52.19
2018-11-29T21:17:48.151Z,52.71
2018-11-29T21:20:17.319Z,52.29
2018-11-29T21:22:46.937Z,52.64
2018-11-29T21:25:17.427Z,53.08
2018-11-29T21:27:46.271Z,53.08
2018-11-29T21:30:15.648Z,53.09
2018-11-29T21:32:44.059Z,53.07
2018-11-29T21:35:14.468Z,52.92
2018-11-29T21:37:43.526Z,52.76
2018-11-29T21:40:21.369Z,52.90
2018-11-29T21:42:49.646Z,53.52
2018-11-29T21:45:17.974Z,53.08
2018-11-29T21:47:46.218Z,53.40
2018-11-29T21:50:14.537Z,53.37
2018-11-29T21:52:42.744Z,54.15
2018-11-29T21:55:10.930Z,53.97
2018-11-29T21:57:39.605Z,53.35
2018-11-29T22:00:11.776Z,53.10
2018-11-29T22:02:41.771Z,53.89
2018-11-29T22:05:09.338Z,53.85
2018-11-29T22:07:37.500Z,54.37
2018-11-29T22:10:05.684Z,54.37
2018-11-29T22:12:33.895Z,54.15
2018-11-29T22:15:02.019Z,54.14
2018-11-29T22:17:30.189Z,53.38
2018-11-29T22:19:58.567Z,54.04
2018-11-29T22:22:28.383Z,53.55
2018-11-29T22:24:54.932Z,53.58
2018-11-29T22:27:23.092Z,53.42
2018-11-29T22:29:52.004Z,53.73
2018-11-29T22:32:20.198Z,53.95
2018-11-29T22:34:48.333Z,53.84
2018-11-29T22:37:16.536Z,53.71
2018-11-29T22:39:44.739Z,53.79
2018-11-29T22:42:12.849Z,53.66
2018-11-29T22:44:41.131Z,53.56
2018-11-29T22:47:09.268Z,53.81
2018-11-29T22:49:37.453Z,53.77
2018-11-29T22:52:05.845Z,53.40
2018-11-29T22:54:34.021Z,53.64
2018-11-29T22:57:02.234Z,53.20
2018-11-29T22:59:30.415Z,53.88
2018-11-29T23:01:58.580Z,54.12
2018-11-29T23:04:26.770Z,53.47
2018-11-29T23:06:54.965Z,53.42
2018-11-29T23:09:23.215Z,53.80
2018-11-29T23:11:51.365Z,53.57
2018-11-29T23:14:19.515Z,53.75
2018-11-29T23:16:47.682Z,53.91
2018-11-29T23:19:15.824Z,53.88
2018-11-29T23:21:44.028Z,54.30
2018-11-29T23:24:12.123Z,53.86
2018-11-29T23:26:40.305Z,54.58
2018-11-29T23:29:08.436Z,53.92
2018-11-29T23:31:36.741Z,53.74
2018-11-29T23:34:04.990Z,54.32
2018-11-29T23:36:33.251Z,53.94
2018-11-29T23:39:02.227Z,55.02
2018-11-29T23:41:30.469Z,54.13
2018-11-29T23:43:58.704Z,54.05
2018-11-29T23:46:26.862Z,54.88
2018-11-29T23:48:55.015Z,54.34
2018-11-29T23:51:24.033Z,54.86
2018-11-29T23:53:52.179Z,54.52
2018-11-29T23:56:20.333Z,54.75
2018-11-29T23:58:48.466Z,54.73
